sensor_id;sensor_type;location;lat;lon;timestamp;pressure;altitude;pressure_sealevel;temperature;humidity
13209;BME280;6669;42.678;23.332;2022-11-15T00:00:52;95078.84;;;4.42;100.00
13209;BME280;6669;42.678;23.332;2022-11-15T00:03:22;95075.66;;;4.29;100.00
13209;BME280;6669;42.678;23.332;2022-11-15T00:05:50;95061.81;;;4.30;100.00
13209;BME280;6669;42.678;23.332;2022-11-15T00:08:18;95078.28;;;4.39;100.00
13209;BME280;6669;42.678;23.332;2022-11-15T00:10:55;95054.34;;;4.27;100.00
13209;BME280;6669;42.678;23.332;2022-11-15T00:13:23;95069.66;;;4.29;100.00
13209;BME280;6669;42.678;23.332;2022-11-15T00:15:51;95063.63;;;4.18;100.00
13209;BME280;6669;42.678;23.332;2022-11-15T00:18:19;95071.78;;;4.23;100.00
13209;BME280;6669;42.678;23.332;2022-11-15T00:20:48;95071.19;;;4.20;100.00
13209;BME280;6669;42.678;23.332;2022-11-15T00:23:15;95069.00;;;4.15;100.00
13209;BME280;6669;42.678;23.332;2022-11-15T00:25:43;95056.06;;;4.05;100.00
13209;BME280;6669;42.678;23.332;2022-11-15T00:28:13;95050.13;;;3.93;100.00
13209;BME280;6669;42.678;23.332;2022-11-15T00:30:41;95064.09;;;4.12;100.00
13209;BME280;6669;42.678;23.332;2022-11-15T00:33:09;95037.00;;;3.97;100.00
13209;BME280;6669;42.678;23.332;2022-11-15T00:35:37;95030.72;;;3.89;100.00
13209;BME280;6669;42.678;23.332;2022-11-15T00:38:05;95045.44;;;3.99;100.00
13209;BME280;6669;42.678;23.332;2022-11-15T00:40:33;95051.06;;;3.92;100.00
13209;BME280;6669;42.678;23.332;2022-11-15T00:43:01;95049.06;;;3.96;100.00
13209;BME280;6669;42.678;23.332;2022-11-15T00:45:30;95045.88;;;4.04;100.00
13209;BME280;6669;42.678;23.332;2022-11-15T00:47:58;95050.59;;;3.99;100.00
13209;BME280;6669;42.678;23.332;2022-11-15T00:50:26;95045.22;;;3.90;100.00
13209;BME280;6669;42.678;23.332;2022-11-15T00:52:54;95049.41;;;3.91;100.00
13209;BME280;6669;42.678;23.332;2022-11-15T00:55:22;95025.69;;;3.88;100.00
13209;BME280;6669;42.678;23.332;2022-11-15T00:57:50;95028.38;;;3.98;100.00
13209;BME280;6669;42.678;23.332;2022-11-15T01:00:18;95037.50;;;3.90;100.00
13209;BME280;6669;42.678;23.332;2022-11-15T01:02:47;95032.72;;;3.86;100.00
13209;BME280;6669;42.678;23.332;2022-11-15T01:05:15;95044.97;;;3.93;100.00
13209;BME280;6669;42.678;23.332;2022-11-15T01:07:43;95041.13;;;3.88;100.00
13209;BME280;6669;42.678;23.332;2022-11-15T01:10:14;95034.13;;;3.90;100.00
13209;BME280;6669;42.678;23.332;2022-11-15T01:12:43;95030.47;;;3.92;100.00
13209;BME280;6669;42.678;23.332;2022-11-15T01:15:11;95036.69;;;3.90;100.00
13209;BME280;6669;42.678;23.332;2022-11-15T01:17:39;95025.09;;;3.84;100.00
13209;BME280;6669;42.678;23.332;2022-11-15T01:20:10;95035.94;;;3.99;100.00
13209;BME280;6669;42.678;23.332;2022-11-15T01:22:38;95038.03;;;4.05;100.00
13209;BME280;6669;42.678;23.332;2022-11-15T01:25:06;95035.34;;;4.07;100.00
13209;BME280;6669;42.678;23.332;2022-11-15T01:27:34;95029.03;;;4.11;100.00
13209;BME280;6669;42.678;23.332;2022-11-15T01:30:02;95040.78;;;4.25;100.00
13209;BME280;6669;42.678;23.332;2022-11-15T01:32:31;95033.88;;;4.25;100.00
13209;BME280;6669;42.678;23.332;2022-11-15T01:34:59;95014.53;;;4.10;100.00
13209;BME280;6669;42.678;23.332;2022-11-15T01:37:29;95019.28;;;4.15;100.00
13209;BME280;6669;42.678;23.332;2022-11-15T01:39:56;95041.19;;;4.09;100.00
13209;BME280;6669;42.678;23.332;2022-11-15T01:42:25;95032.06;;;4.16;100.00
13209;BME280;6669;42.678;23.332;2022-11-15T01:44:53;95027.75;;;4.05;100.00
13209;BME280;6669;42.678;23.332;2022-11-15T01:47:23;95032.66;;;4.08;100.00
13209;BME280;6669;42.678;23.332;2022-11-15T01:49:57;95017.72;;;4.02;100.00
13209;BME280;6669;42.678;23.332;2022-11-15T01:52:31;95029.06;;;4.00;100.00
13209;BME280;6669;42.678;23.332;2022-11-15T01:55:04;95024.44;;;3.82;100.00
13209;BME280;6669;42.678;23.332;2022-11-15T01:57:37;95027.47;;;3.76;100.00
13209;BME280;6669;42.678;23.332;2022-11-15T02:00:06;95025.63;;;3.78;100.00
13209;BME280;6669;42.678;23.332;2022-11-15T02:02:36;95034.72;;;3.82;100.00
13209;BME280;6669;42.678;23.332;2022-11-15T02:05:06;95025.41;;;3.58;100.00
13209;BME280;6669;42.678;23.332;2022-11-15T02:07:36;95034.75;;;3.48;100.00
13209;BME280;6669;42.678;23.332;2022-11-15T02:10:08;95028.22;;;3.44;100.00
13209;BME280;6669;42.678;23.332;2022-11-15T02:12:37;95033.13;;;3.47;100.00
13209;BME280;6669;42.678;23.332;2022-11-15T02:15:06;95023.44;;;3.39;100.00
13209;BME280;6669;42.678;23.332;2022-11-15T02:17:47;95023.09;;;3.44;100.00
13209;BME280;6669;42.678;23.332;2022-11-15T02:20:47;95027.97;;;3.36;100.00
13209;BME280;6669;42.678;23.332;2022-11-15T02:26:49;95020.88;;;3.28;100.00
13209;BME280;6669;42.678;23.332;2022-11-15T02:29:28;95024.47;;;3.14;100.00
13209;BME280;6669;42.678;23.332;2022-11-15T02:32:10;95015.84;;;3.15;100.00
13209;BME280;6669;42.678;23.332;2022-11-15T02:34:50;95023.34;;;3.18;100.00
13209;BME280;6669;42.678;23.332;2022-11-15T02:37:23;95016.78;;;3.14;100.00
13209;BME280;6669;42.678;23.332;2022-11-15T02:39:58;95002.31;;;3.02;100.00
13209;BME280;6669;42.678;23.332;2022-11-15T02:42:33;95007.47;;;3.02;100.00
13209;BME280;6669;42.678;23.332;2022-11-15T02:45:24;95014.19;;;3.03;100.00
13209;BME280;6669;42.678;23.332;2022-11-15T02:47:56;95008.50;;;2.99;100.00
13209;BME280;6669;42.678;23.332;2022-11-15T02:50:29;95013.72;;;2.98;100.00
13209;BME280;6669;42.678;23.332;2022-11-15T02:52:57;95005.81;;;2.89;100.00
13209;BME280;6669;42.678;23.332;2022-11-15T02:55:30;95004.41;;;2.97;100.00
13209;BME280;6669;42.678;23.332;2022-11-15T02:58:12;95016.56;;;3.06;100.00
13209;BME280;6669;42.678;23.332;2022-11-15T03:00:48;95017.94;;;3.10;100.00
13209;BME280;6669;42.678;23.332;2022-11-15T03:03:36;95012.69;;;3.11;100.00
13209;BME280;6669;42.678;23.332;2022-11-15T03:06:15;95016.19;;;3.10;100.00
13209;BME280;6669;42.678;23.332;2022-11-15T03:08:53;95012.47;;;3.15;100.00
13209;BME280;6669;42.678;23.332;2022-11-15T03:11:23;95009.31;;;3.22;100.00
13209;BME280;6669;42.678;23.332;2022-11-15T03:13:57;95004.66;;;3.16;100.00
13209;BME280;6669;42.678;23.332;2022-11-15T03:16:29;95016.19;;;3.33;100.00
13209;BME280;6669;42.678;23.332;2022-11-15T03:19:05;95010.97;;;3.35;100.00
13209;BME280;6669;42.678;23.332;2022-11-15T03:21:35;95005.69;;;3.36;100.00
13209;BME280;6669;42.678;23.332;2022-11-15T03:24:07;95004.84;;;3.36;100.00
13209;BME280;6669;42.678;23.332;2022-11-15T03:26:38;95012.44;;;3.49;100.00
13209;BME280;6669;42.678;23.332;2022-11-15T03:29:12;94989.44;;;3.24;100.00
13209;BME280;6669;42.678;23.332;2022-11-15T03:31:44;95000.44;;;3.38;100.00
13209;BME280;6669;42.678;23.332;2022-11-15T03:34:24;95002.66;;;3.31;100.00
13209;BME280;6669;42.678;23.332;2022-11-15T03:36:54;94986.19;;;3.22;100.00
13209;BME280;6669;42.678;23.332;2022-11-15T03:39:23;95000.31;;;3.39;100.00
13209;BME280;6669;42.678;23.332;2022-11-15T03:41:57;94988.97;;;3.42;100.00
13209;BME280;6669;42.678;23.332;2022-11-15T03:44:36;94993.78;;;3.35;100.00
13209;BME280;6669;42.678;23.332;2022-11-15T03:47:11;94979.16;;;3.47;100.00
13209;BME280;6669;42.678;23.332;2022-11-15T03:49:44;94983.59;;;3.56;100.00
13209;BME280;6669;42.678;23.332;2022-11-15T03:52:17;94981.94;;;3.67;100.00
13209;BME280;6669;42.678;23.332;2022-11-15T03:54:50;94982.84;;;3.77;100.00
13209;BME280;6669;42.678;23.332;2022-11-15T03:57:18;94973.75;;;3.73;100.00
13209;BME280;6669;42.678;23.332;2022-11-15T03:59:46;94973.63;;;3.74;100.00
13209;BME280;6669;42.678;23.332;2022-11-15T04:02:14;94985.56;;;3.64;100.00
13209;BME280;6669;42.678;23.332;2022-11-15T04:04:43;94960.91;;;3.62;100.00
13209;BME280;6669;42.678;23.332;2022-11-15T04:07:11;94969.19;;;3.65;100.00
13209;BME280;6669;42.678;23.332;2022-11-15T04:09:40;94964.44;;;3.49;100.00
13209;BME280;6669;42.678;23.332;2022-11-15T04:12:21;94974.69;;;3.60;100.00
13209;BME280;6669;42.678;23.332;2022-11-15T04:14:59;94975.97;;;3.55;100.00
13209;BME280;6669;42.678;23.332;2022-11-15T04:17:38;94973.06;;;3.59;100.00
13209;BME280;6669;42.678;23.332;2022-11-15T04:20:11;94964.44;;;3.49;100.00
13209;BME280;6669;42.678;23.332;2022-11-15T04:22:58;94975.41;;;3.51;100.00
13209;BME280;6669;42.678;23.332;2022-11-15T04:25:44;94965.47;;;3.58;100.00
13209;BME280;6669;42.678;23.332;2022-11-15T04:28:13;94953.91;;;3.52;100.00
13209;BME280;6669;42.678;23.332;2022-11-15T04:30:41;94968.03;;;3.69;100.00
13209;BME280;6669;42.678;23.332;2022-11-15T04:33:08;94964.03;;;3.65;100.00
13209;BME280;6669;42.678;23.332;2022-11-15T04:35:38;94975.94;;;3.78;100.00
13209;BME280;6669;42.678;23.332;2022-11-15T04:38:08;94976.31;;;3.73;100.00
13209;BME280;6669;42.678;23.332;2022-11-15T04:40:36;94971.97;;;3.73;100.00
13209;BME280;6669;42.678;23.332;2022-11-15T04:43:05;94954.00;;;3.62;100.00
13209;BME280;6669;42.678;23.332;2022-11-15T04:45:33;94980.50;;;3.74;100.00
13209;BME280;6669;42.678;23.332;2022-11-15T04:48:01;94967.66;;;3.63;100.00
13209;BME280;6669;42.678;23.332;2022-11-15T04:50:28;94973.75;;;3.62;100.00
13209;BME280;6669;42.678;23.332;2022-11-15T04:52:58;94973.06;;;3.59;100.00
13209;BME280;6669;42.678;23.332;2022-11-15T04:55:26;94971.81;;;3.54;100.00
13209;BME280;6669;42.678;23.332;2022-11-15T04:57:58;94967.19;;;3.69;100.00
13209;BME280;6669;42.678;23.332;2022-11-15T05:00:27;94973.84;;;3.71;100.00
13209;BME280;6669;42.678;23.332;2022-11-15T05:02:56;94984.47;;;3.78;100.00
13209;BME280;6669;42.678;23.332;2022-11-15T05:05:42;94957.97;;;3.55;100.00
13209;BME280;6669;42.678;23.332;2022-11-15T05:08:11;94977.91;;;3.74;100.00
13209;BME280;6669;42.678;23.332;2022-11-15T05:10:39;94972.56;;;3.77;100.00
13209;BME280;6669;42.678;23.332;2022-11-15T05:13:07;94970.78;;;3.78;100.00
13209;BME280;6669;42.678;23.332;2022-11-15T05:15:35;94984.81;;;3.85;100.00
13209;BME280;6669;42.678;23.332;2022-11-15T05:18:03;94983.75;;;3.87;100.00
13209;BME280;6669;42.678;23.332;2022-11-15T05:20:31;94981.03;;;3.89;100.00
13209;BME280;6669;42.678;23.332;2022-11-15T05:22:59;94982.47;;;3.70;100.00
13209;BME280;6669;42.678;23.332;2022-11-15T05:25:28;94979.78;;;3.83;100.00
13209;BME280;6669;42.678;23.332;2022-11-15T05:27:56;94959.41;;;3.59;100.00
13209;BME280;6669;42.678;23.332;2022-11-15T05:30:24;94970.81;;;3.66;100.00
13209;BME280;6669;42.678;23.332;2022-11-15T05:32:53;94955.38;;;3.66;100.00
13209;BME280;6669;42.678;23.332;2022-11-15T05:35:30;94972.56;;;3.77;100.00
13209;BME280;6669;42.678;23.332;2022-11-15T05:38:00;94973.97;;;3.70;100.00
13209;BME280;6669;42.678;23.332;2022-11-15T05:40:30;94955.66;;;3.63;100.00
13209;BME280;6669;42.678;23.332;2022-11-15T05:43:00;94974.56;;;3.62;100.00
13209;BME280;6669;42.678;23.332;2022-11-15T05:45:29;94972.59;;;3.66;100.00
13209;BME280;6669;42.678;23.332;2022-11-15T05:48:00;94968.84;;;3.58;100.00
13209;BME280;6669;42.678;23.332;2022-11-15T05:50:32;94977.47;;;3.69;100.00
13209;BME280;6669;42.678;23.332;2022-11-15T05:53:01;94972.56;;;3.77;100.00
13209;BME280;6669;42.678;23.332;2022-11-15T05:55:32;94972.28;;;3.80;100.00
13209;BME280;6669;42.678;23.332;2022-11-15T05:58:01;94968.81;;;3.70;100.00
13209;BME280;6669;42.678;23.332;2022-11-15T06:00:29;94974.88;;;3.80;100.00
13209;BME280;6669;42.678;23.332;2022-11-15T06:03:07;94974.19;;;3.78;100.00
13209;BME280;6669;42.678;23.332;2022-11-15T06:05:36;94980.63;;;3.72;100.00
13209;BME280;6669;42.678;23.332;2022-11-15T06:08:04;94985.03;;;3.82;100.00
13209;BME280;6669;42.678;23.332;2022-11-15T06:10:34;94970.22;;;3.74;100.00
13209;BME280;6669;42.678;23.332;2022-11-15T06:13:04;94986.75;;;3.92;100.00
13209;BME280;6669;42.678;23.332;2022-11-15T06:15:33;94978.44;;;4.00;100.00
13209;BME280;6669;42.678;23.332;2022-11-15T06:18:01;94981.56;;;4.04;100.00
13209;BME280;6669;42.678;23.332;2022-11-15T06:20:30;94971.34;;;3.92;100.00
13209;BME280;6669;42.678;23.332;2022-11-15T06:22:58;94973.59;;;3.86;100.00
13209;BME280;6669;42.678;23.332;2022-11-15T06:25:27;94973.50;;;3.76;100.00
13209;BME280;6669;42.678;23.332;2022-11-15T06:27:58;94971.00;;;3.86;100.00
13209;BME280;6669;42.678;23.332;2022-11-15T06:30:27;94979.78;;;3.83;100.00
13209;BME280;6669;42.678;23.332;2022-11-15T06:33:00;94978.81;;;3.84;100.00
13209;BME280;6669;42.678;23.332;2022-11-15T06:35:32;94970.91;;;3.76;100.00
13209;BME280;6669;42.678;23.332;2022-11-15T06:38:05;94972.97;;;3.93;100.00
13209;BME280;6669;42.678;23.332;2022-11-15T06:40:34;94965.13;;;3.95;100.00
13209;BME280;6669;42.678;23.332;2022-11-15T06:43:05;94971.97;;;4.06;100.00
13209;BME280;6669;42.678;23.332;2022-11-15T06:45:33;94966.09;;;4.15;100.00
13209;BME280;6669;42.678;23.332;2022-11-15T06:48:01;94957.69;;;4.13;100.00
13209;BME280;6669;42.678;23.332;2022-11-15T06:50:30;94967.53;;;4.08;100.00
13209;BME280;6669;42.678;23.332;2022-11-15T06:53:01;94971.44;;;4.23;100.00
13209;BME280;6669;42.678;23.332;2022-11-15T06:55:29;94954.16;;;4.14;100.00
13209;BME280;6669;42.678;23.332;2022-11-15T06:57:58;94970.81;;;4.31;100.00
13209;BME280;6669;42.678;23.332;2022-11-15T07:00:27;94980.75;;;4.36;100.00
13209;BME280;6669;42.678;23.332;2022-11-15T07:02:59;94961.72;;;4.27;100.00
13209;BME280;6669;42.678;23.332;2022-11-15T07:05:28;94966.22;;;4.35;100.00
13209;BME280;6669;42.678;23.332;2022-11-15T07:07:57;94963.28;;;4.39;100.00
13209;BME280;6669;42.678;23.332;2022-11-15T07:10:26;94972.06;;;4.16;100.00
13209;BME280;6669;42.678;23.332;2022-11-15T07:12:55;94964.78;;;4.21;100.00
13209;BME280;6669;42.678;23.332;2022-11-15T07:15:25;94961.34;;;4.32;100.00
13209;BME280;6669;42.678;23.332;2022-11-15T07:17:55;94949.47;;;4.19;100.00
13209;BME280;6669;42.678;23.332;2022-11-15T07:20:24;94965.66;;;4.10;100.00
13209;BME280;6669;42.678;23.332;2022-11-15T07:22:59;94961.53;;;4.19;100.00
13209;BME280;6669;42.678;23.332;2022-11-15T07:25:30;94973.50;;;4.30;100.00
13209;BME280;6669;42.678;23.332;2022-11-15T07:27:59;94965.22;;;4.26;100.00
13209;BME280;6669;42.678;23.332;2022-11-15T07:30:28;94971.16;;;4.38;100.00
13209;BME280;6669;42.678;23.332;2022-11-15T07:32:59;94962.91;;;4.44;100.00
13209;BME280;6669;42.678;23.332;2022-11-15T07:35:29;94969.47;;;4.58;100.00
13209;BME280;6669;42.678;23.332;2022-11-15T07:38:03;94974.97;;;4.65;100.00
13209;BME280;6669;42.678;23.332;2022-11-15T07:40:46;94959.59;;;4.53;100.00
13209;BME280;6669;42.678;23.332;2022-11-15T07:43:21;94958.13;;;4.61;100.00
13209;BME280;6669;42.678;23.332;2022-11-15T07:45:50;94973.13;;;4.77;100.00
13209;BME280;6669;42.678;23.332;2022-11-15T07:48:27;94962.63;;;4.68;100.00
13209;BME280;6669;42.678;23.332;2022-11-15T07:51:11;94974.34;;;4.82;100.00
13209;BME280;6669;42.678;23.332;2022-11-15T07:53:40;94969.09;;;4.84;100.00
13209;BME280;6669;42.678;23.332;2022-11-15T07:56:10;94963.53;;;4.79;100.00
13209;BME280;6669;42.678;23.332;2022-11-15T07:58:38;94970.59;;;4.86;100.00
13209;BME280;6669;42.678;23.332;2022-11-15T08:01:07;94963.94;;;4.84;100.00
13209;BME280;6669;42.678;23.332;2022-11-15T08:03:37;94958.44;;;4.67;100.00
13209;BME280;6669;42.678;23.332;2022-11-15T08:06:05;94948.25;;;4.66;100.00
13209;BME280;6669;42.678;23.332;2022-11-15T08:08:34;94971.50;;;4.75;100.00
13209;BME280;6669;42.678;23.332;2022-11-15T08:11:04;94965.13;;;4.80;100.00
13209;BME280;6669;42.678;23.332;2022-11-15T08:13:32;94968.53;;;4.80;100.00
13209;BME280;6669;42.678;23.332;2022-11-15T08:16:02;94970.84;;;4.83;100.00
13209;BME280;6669;42.678;23.332;2022-11-15T08:18:32;94951.78;;;4.65;100.00
13209;BME280;6669;42.678;23.332;2022-11-15T08:21:01;94955.16;;;4.65;100.00
13209;BME280;6669;42.678;23.332;2022-11-15T08:23:37;94946.25;;;4.69;100.00
13209;BME280;6669;42.678;23.332;2022-11-15T08:26:05;94945.00;;;4.64;100.00
13209;BME280;6669;42.678;23.332;2022-11-15T08:28:33;94953.72;;;4.72;100.00
13209;BME280;6669;42.678;23.332;2022-11-15T08:31:02;94949.81;;;4.78;100.00
13209;BME280;6669;42.678;23.332;2022-11-15T08:33:33;94948.94;;;4.89;100.00
13209;BME280;6669;42.678;23.332;2022-11-15T08:36:03;94954.38;;;4.96;100.00
13209;BME280;6669;42.678;23.332;2022-11-15T08:38:33;94953.06;;;5.11;100.00
13209;BME280;6669;42.678;23.332;2022-11-15T08:41:03;94935.31;;;5.08;100.00
13209;BME280;6669;42.678;23.332;2022-11-15T08:43:34;94948.75;;;5.21;100.00
13209;BME280;6669;42.678;23.332;2022-11-15T08:46:05;94924.22;;;5.17;100.00
13209;BME280;6669;42.678;23.332;2022-11-15T08:48:33;94941.22;;;5.30;100.00
13209;BME280;6669;42.678;23.332;2022-11-15T08:51:04;94930.91;;;5.30;100.00
13209;BME280;6669;42.678;23.332;2022-11-15T08:53:33;94933.75;;;5.36;100.00
13209;BME280;6669;42.678;23.332;2022-11-15T08:56:02;94945.25;;;5.22;100.00
13209;BME280;6669;42.678;23.332;2022-11-15T08:58:31;94936.81;;;5.20;100.00
13209;BME280;6669;42.678;23.332;2022-11-15T09:01:00;94931.38;;;5.14;100.00
13209;BME280;6669;42.678;23.332;2022-11-15T09:03:28;94923.56;;;5.25;100.00
13209;BME280;6669;42.678;23.332;2022-11-15T09:05:59;94921.94;;;5.34;100.00
13209;BME280;6669;42.678;23.332;2022-11-15T09:08:33;94900.53;;;5.33;100.00
13209;BME280;6669;42.678;23.332;2022-11-15T09:11:13;94920.38;;;5.52;100.00
13209;BME280;6669;42.678;23.332;2022-11-15T09:13:43;94904.50;;;5.67;100.00
13209;BME280;6669;42.678;23.332;2022-11-15T09:16:37;94894.84;;;5.59;100.00
13209;BME280;6669;42.678;23.332;2022-11-15T09:19:06;94906.94;;;5.78;100.00
13209;BME280;6669;42.678;23.332;2022-11-15T09:21:37;94891.31;;;5.80;100.00
13209;BME280;6669;42.678;23.332;2022-11-15T09:24:07;94898.66;;;5.84;100.00
13209;BME280;6669;42.678;23.332;2022-11-15T09:26:35;94905.88;;;6.00;100.00
13209;BME280;6669;42.678;23.332;2022-11-15T09:29:04;94883.84;;;5.96;100.00
13209;BME280;6669;42.678;23.332;2022-11-15T09:31:36;94905.75;;;6.12;100.00
13209;BME280;6669;42.678;23.332;2022-11-15T09:34:04;94899.78;;;6.11;100.00
13209;BME280;6669;42.678;23.332;2022-11-15T09:36:32;94893.78;;;6.11;100.00
13209;BME280;6669;42.678;23.332;2022-11-15T09:39:00;94878.56;;;5.98;100.00
13209;BME280;6669;42.678;23.332;2022-11-15T09:41:55;94878.19;;;6.12;100.00
13209;BME280;6669;42.678;23.332;2022-11-15T09:44:47;94885.91;;;6.12;100.00
13209;BME280;6669;42.678;23.332;2022-11-15T09:48:07;94872.47;;;5.99;100.00
13209;BME280;6669;42.678;23.332;2022-11-15T09:50:42;94863.66;;;6.11;100.00
13209;BME280;6669;42.678;23.332;2022-11-15T09:53:20;94865.28;;;6.12;100.00
13209;BME280;6669;42.678;23.332;2022-11-15T09:56:14;94857.63;;;6.20;100.00
13209;BME280;6669;42.678;23.332;2022-11-15T09:58:53;94870.25;;;6.33;100.00
13209;BME280;6669;42.678;23.332;2022-11-15T10:01:35;94840.34;;;6.41;100.00
13209;BME280;6669;42.678;23.332;2022-11-15T10:04:06;94862.47;;;6.81;100.00
13209;BME280;6669;42.678;23.332;2022-11-15T10:06:42;94853.53;;;7.03;100.00
13209;BME280;6669;42.678;23.332;2022-11-15T10:09:19;94859.78;;;7.28;100.00
13209;BME280;6669;42.678;23.332;2022-11-15T10:11:56;94856.03;;;7.77;100.00
13209;BME280;6669;42.678;23.332;2022-11-15T10:14:30;94845.94;;;8.10;100.00
13209;BME280;6669;42.678;23.332;2022-11-15T10:17:14;94851.06;;;8.72;100.00
13209;BME280;6669;42.678;23.332;2022-11-15T10:19:55;94858.41;;;9.36;100.00
13209;BME280;6669;42.678;23.332;2022-11-15T10:22:36;94860.41;;;9.59;100.00
13209;BME280;6669;42.678;23.332;2022-11-15T10:25:21;94862.38;;;9.81;100.00
13209;BME280;6669;42.678;23.332;2022-11-15T10:27:54;94868.84;;;9.94;100.00
13209;BME280;6669;42.678;23.332;2022-11-15T10:30:28;94851.34;;;9.71;100.00
13209;BME280;6669;42.678;23.332;2022-11-15T10:33:10;94851.50;;;10.27;100.00
13209;BME280;6669;42.678;23.332;2022-11-15T10:35:40;94845.81;;;10.40;100.00
13209;BME280;6669;42.678;23.332;2022-11-15T10:38:11;94844.50;;;10.44;100.00
13209;BME280;6669;42.678;23.332;2022-11-15T10:40:41;94828.75;;;10.54;100.00
13209;BME280;6669;42.678;23.332;2022-11-15T10:43:16;94839.06;;;10.79;100.00
13209;BME280;6669;42.678;23.332;2022-11-15T10:45:45;94830.81;;;11.07;100.00
13209;BME280;6669;42.678;23.332;2022-11-15T10:48:24;94835.06;;;11.39;100.00
13209;BME280;6669;42.678;23.332;2022-11-15T10:50:55;94815.22;;;11.61;100.00
13209;BME280;6669;42.678;23.332;2022-11-15T10:53:27;94828.88;;;11.87;100.00
13209;BME280;6669;42.678;23.332;2022-11-15T10:56:02;94824.31;;;12.12;100.00
13209;BME280;6669;42.678;23.332;2022-11-15T10:58:37;94825.91;;;11.98;100.00
13209;BME280;6669;42.678;23.332;2022-11-15T11:01:12;94819.72;;;11.91;100.00
13209;BME280;6669;42.678;23.332;2022-11-15T11:03:43;94803.09;;;12.15;100.00
13209;BME280;6669;42.678;23.332;2022-11-15T11:06:15;94808.09;;;12.40;100.00
13209;BME280;6669;42.678;23.332;2022-11-15T11:08:58;94785.69;;;12.46;100.00
13209;BME280;6669;42.678;23.332;2022-11-15T11:11:44;94803.25;;;12.82;100.00
13209;BME280;6669;42.678;23.332;2022-11-15T11:14:19;94779.66;;;12.90;100.00
13209;BME280;6669;42.678;23.332;2022-11-15T11:17:01;94784.53;;;12.63;100.00
13209;BME280;6669;42.678;23.332;2022-11-15T11:19:51;94797.41;;;12.65;100.00
13209;BME280;6669;42.678;23.332;2022-11-15T11:22:28;94787.69;;;12.58;100.00
13209;BME280;6669;42.678;23.332;2022-11-15T11:25:11;94777.16;;;12.82;100.00
13209;BME280;6669;42.678;23.332;2022-11-15T11:27:56;94767.81;;;12.72;100.00
13209;BME280;6669;42.678;23.332;2022-11-15T11:30:37;94753.31;;;12.70;100.00
13209;BME280;6669;42.678;23.332;2022-11-15T11:33:13;94758.00;;;12.59;100.00
13209;BME280;6669;42.678;23.332;2022-11-15T11:35:51;94745.56;;;12.91;100.00
13209;BME280;6669;42.678;23.332;2022-11-15T11:38:34;94747.25;;;12.99;100.00
13209;BME280;6669;42.678;23.332;2022-11-15T11:41:17;94743.81;;;13.14;100.00
13209;BME280;6669;42.678;23.332;2022-11-15T11:43:54;94744.66;;;13.21;100.00
13209;BME280;6669;42.678;23.332;2022-11-15T11:46:43;94722.28;;;13.12;100.00
13209;BME280;6669;42.678;23.332;2022-11-15T11:49:20;94737.09;;;13.26;100.00
13209;BME280;6669;42.678;23.332;2022-11-15T11:51:54;94729.94;;;13.35;100.00
13209;BME280;6669;42.678;23.332;2022-11-15T11:54:31;94727.78;;;13.60;100.00
13209;BME280;6669;42.678;23.332;2022-11-15T11:57:05;94718.69;;;13.49;100.00
13209;BME280;6669;42.678;23.332;2022-11-15T11:59:43;94717.59;;;13.44;100.00
13209;BME280;6669;42.678;23.332;2022-11-15T12:02:20;94718.84;;;13.48;100.00
13209;BME280;6669;42.678;23.332;2022-11-15T12:04:57;94712.78;;;13.40;100.00
13209;BME280;6669;42.678;23.332;2022-11-15T12:07:30;94689.13;;;13.49;100.00
13209;BME280;6669;42.678;23.332;2022-11-15T12:10:04;94700.44;;;13.56;100.00
13209;BME280;6669;42.678;23.332;2022-11-15T12:12:38;94680.59;;;13.62;100.00
13209;BME280;6669;42.678;23.332;2022-11-15T12:15:14;94695.19;;;13.49;100.00
13209;BME280;6669;42.678;23.332;2022-11-15T12:17:46;94683.78;;;13.57;100.00
13209;BME280;6669;42.678;23.332;2022-11-15T12:20:17;94697.56;;;13.72;100.00
13209;BME280;6669;42.678;23.332;2022-11-15T12:22:55;94686.16;;;13.80;100.00
13209;BME280;6669;42.678;23.332;2022-11-15T12:25:30;94680.97;;;13.87;100.00
13209;BME280;6669;42.678;23.332;2022-11-15T12:28:06;94683.13;;;13.77;100.00
13209;BME280;6669;42.678;23.332;2022-11-15T12:30:46;94673.41;;;14.34;100.00
13209;BME280;6669;42.678;23.332;2022-11-15T12:33:49;94660.28;;;14.20;100.00
13209;BME280;6669;42.678;23.332;2022-11-15T12:36:36;94658.66;;;14.19;100.00
13209;BME280;6669;42.678;23.332;2022-11-15T12:39:07;94654.47;;;14.25;100.00
13209;BME280;6669;42.678;23.332;2022-11-15T12:41:38;94669.38;;;14.66;100.00
13209;BME280;6669;42.678;23.332;2022-11-15T12:44:11;94646.28;;;14.42;100.00
13209;BME280;6669;42.678;23.332;2022-11-15T12:49:58;94661.41;;;14.46;100.00
13209;BME280;6669;42.678;23.332;2022-11-15T12:52:28;94648.53;;;14.51;100.00
13209;BME280;6669;42.678;23.332;2022-11-15T12:55:02;94645.53;;;14.54;100.00
13209;BME280;6669;42.678;23.332;2022-11-15T12:57:37;94649.56;;;14.57;100.00
13209;BME280;6669;42.678;23.332;2022-11-15T13:03:23;94641.13;;;14.55;100.00
13209;BME280;6669;42.678;23.332;2022-11-15T13:06:07;94634.13;;;14.20;100.00
13209;BME280;6669;42.678;23.332;2022-11-15T13:08:43;94628.09;;;14.27;100.00
13209;BME280;6669;42.678;23.332;2022-11-15T13:11:49;94641.13;;;14.13;100.00
13209;BME280;6669;42.678;23.332;2022-11-15T13:17:34;94616.19;;;14.11;100.00
13209;BME280;6669;42.678;23.332;2022-11-15T13:20:29;94623.47;;;14.15;100.00
13209;BME280;6669;42.678;23.332;2022-11-15T13:23:09;94610.88;;;13.97;100.00
13209;BME280;6669;42.678;23.332;2022-11-15T13:26:08;94619.59;;;14.11;100.00
13209;BME280;6669;42.678;23.332;2022-11-15T13:28:43;94623.41;;;14.09;100.00
13209;BME280;6669;42.678;23.332;2022-11-15T13:31:34;94614.78;;;14.08;100.00
13209;BME280;6669;42.678;23.332;2022-11-15T13:34:18;94591.44;;;13.71;100.00
13209;BME280;6669;42.678;23.332;2022-11-15T13:37:26;94608.19;;;13.49;100.00
13209;BME280;6669;42.678;23.332;2022-11-15T13:40:10;94588.94;;;13.28;100.00
13209;BME280;6669;42.678;23.332;2022-11-15T13:42:45;94594.53;;;13.25;100.00